Time;durP1;ratioP1;P1;durP2;ratioP2;P2;SDS_P1;SDS_P2;PMS_P1;PMS_P2;Temp;Humidity;BMP_temperature;BMP_pressure;BME280_temperature;BME280_humidity;BME280_pressure;Samples;Min_cycle;Max_cycle;Signal;HPM_P1;HPM_P2
2021/04/27 00:01:16;;;;;;;6.47;3.30;;;;;;;;;;4981067;28;20034;-86
2021/04/27 00:04:01;;;;;;;5.70;2.90;;;;;;;;;;4980637;28;20034;-88
2021/04/27 00:06:47;;;;;;;6.25;3.20;;;;;;;;;;4980104;28;20465;-87
2021/04/27 00:09:33;;;;;;;7.30;3.00;;;;;;;;;;4981329;28;20019;-89
2021/04/27 00:12:18;;;;;;;9.20;3.80;;;;;;;;;;4982581;28;20101;-89
2021/04/27 00:15:05;;;;;;;5.85;3.05;;;;;;;;;;4981376;28;20029;-86
2021/04/27 00:17:51;;;;;;;10.10;3.53;;;;;;;;;;4969027;28;20524;-86
2021/04/27 00:20:36;;;;;;;8.02;3.45;;;;;;;;;;4960522;28;20054;-87
2021/04/27 00:23:23;;;;;;;8.32;3.03;;;;;;;;;;4979260;28;20038;-87
2021/04/27 00:26:08;;;;;;;10.43;3.03;;;;;;;;;;4977537;28;20125;-87
2021/04/27 00:28:57;;;;;;;7.88;3.95;;;;;;;;;;4981832;28;20038;-87
2021/04/27 00:31:42;;;;;;;7.18;3.13;;;;;;;;;;4966680;28;20129;-87
2021/04/27 00:34:27;;;;;;;6.70;3.13;;;;;;;;;;4979314;28;20529;-86
2021/04/27 00:37:13;;;;;;;6.28;2.85;;;;;;;;;;4975480;28;20096;-86
2021/04/27 00:39:58;;;;;;;5.45;3.13;;;;;;;;;;4983687;28;20045;-86
2021/04/27 00:42:47;;;;;;;8.20;3.53;;;;;;;;;;4980846;28;20031;-87
2021/04/27 00:45:32;;;;;;;6.05;2.90;;;;;;;;;;4980784;28;20026;-87
2021/04/27 00:48:18;;;;;;;8.00;3.47;;;;;;;;;;4979297;28;20100;-86
2021/04/27 00:51:03;;;;;;;8.15;4.20;;;;;;;;;;4976278;28;20472;-86
2021/04/27 00:53:49;;;;;;;8.95;4.45;;;;;;;;;;4984276;28;20010;-87
2021/04/27 00:56:37;;;;;;;9.40;3.90;;;;;;;;;;4978334;28;20097;-87
2021/04/27 00:59:22;;;;;;;7.55;2.97;;;;;;;;;;4980015;28;20556;-86
2021/04/27 01:02:08;;;;;;;7.22;3.00;;;;;;;;;;4979558;28;20058;-87
2021/04/27 01:04:54;;;;;;;8.40;3.20;;;;;;;;;;4982124;28;20046;-86
2021/04/27 01:07:55;;;;;;;5.22;3.05;;;;;;;;;;4986112;28;20065;-87
2021/04/27 01:10:48;;;;;;;7.40;3.03;;;;;;;;;;4987335;28;20022;-87
2021/04/27 01:13:39;;;;;;;5.90;3.10;;;;;;;;;;4983917;28;20037;-88
2021/04/27 01:16:25;;;;;;;6.35;3.20;;;;;;;;;;4983302;28;20026;-86
2021/04/27 01:19:15;;;;;;;10.65;2.85;;;;;;;;;;4983663;28;20073;-88
2021/04/27 01:22:00;;;;;;;8.50;3.00;;;;;;;;;;4984484;28;20026;-88
2021/04/27 01:24:56;;;;;;;6.75;2.70;;;;;;;;;;4988648;28;20121;-88
2021/04/27 01:27:42;;;;;;;8.02;3.05;;;;;;;;;;4971708;28;20593;-88
2021/04/27 01:30:27;;;;;;;11.45;3.05;;;;;;;;;;4970772;28;20025;-88
2021/04/27 01:33:15;;;;;;;6.57;2.92;;;;;;;;;;4980005;28;20045;-88
2021/04/27 01:36:01;;;;;;;5.18;2.67;;;;;;;;;;4983329;28;20045;-87
2021/04/27 01:38:46;;;;;;;5.07;2.72;;;;;;;;;;4985403;28;20077;-88
2021/04/27 01:41:32;;;;;;;5.70;3.05;;;;;;;;;;4989479;28;20033;-88
2021/04/27 01:44:18;;;;;;;8.02;3.05;;;;;;;;;;4982373;28;20022;-87
2021/04/27 01:47:04;;;;;;;6.60;2.65;;;;;;;;;;4982248;28;20760;-88
2021/04/27 01:49:49;;;;;;;5.88;2.65;;;;;;;;;;4971633;28;20120;-86
2021/04/27 01:52:35;;;;;;;6.85;3.60;;;;;;;;;;4985904;28;20018;-87
2021/04/27 01:55:21;;;;;;;9.18;2.58;;;;;;;;;;4985481;28;20481;-86
2021/04/27 01:58:06;;;;;;;7.90;2.80;;;;;;;;;;4970920;28;20385;-86
2021/04/27 02:00:51;;;;;;;6.18;2.85;;;;;;;;;;4980259;28;20057;-86
2021/04/27 02:03:44;;;;;;;8.93;3.00;;;;;;;;;;4978298;28;22738;-87
2021/04/27 02:06:29;;;;;;;7.72;3.13;;;;;;;;;;4981796;28;20125;-86
2021/04/27 02:09:15;;;;;;;3.60;2.60;;;;;;;;;;4980025;28;20034;-87
2021/04/27 02:12:01;;;;;;;5.47;2.92;;;;;;;;;;4985147;28;20438;-87
2021/04/27 02:14:46;;;;;;;7.82;3.05;;;;;;;;;;4981682;28;20484;-86
2021/04/27 02:17:36;;;;;;;6.85;2.95;;;;;;;;;;4982853;28;20030;-86
2021/04/27 02:20:23;;;;;;;5.15;2.88;;;;;;;;;;4982507;28;20481;-85
2021/04/27 02:23:09;;;;;;;4.93;2.60;;;;;;;;;;4981928;28;20023;-86
2021/04/27 02:25:55;;;;;;;6.18;2.90;;;;;;;;;;4983611;28;20026;-87
2021/04/27 02:28:41;;;;;;;7.22;2.30;;;;;;;;;;4981358;28;20096;-86
2021/04/27 02:31:28;;;;;;;6.22;2.55;;;;;;;;;;4976732;28;20057;-87
2021/04/27 02:34:14;;;;;;;9.48;3.28;;;;;;;;;;4984505;28;20025;-87
2021/04/27 02:36:59;;;;;;;4.78;2.67;;;;;;;;;;4984767;28;20061;-87
2021/04/27 02:39:44;;;;;;;6.82;2.67;;;;;;;;;;4977737;28;20030;-85
2021/04/27 02:42:30;;;;;;;4.57;2.45;;;;;;;;;;4980650;28;20397;-87
2021/04/27 02:45:16;;;;;;;7.25;3.45;;;;;;;;;;4978426;28;20121;-87
2021/04/27 02:48:05;;;;;;;6.03;2.90;;;;;;;;;;4971777;28;20014;-87
2021/04/27 02:50:53;;;;;;;4.57;2.75;;;;;;;;;;4976604;28;20477;-86
2021/04/27 02:53:39;;;;;;;6.95;2.85;;;;;;;;;;4980148;28;20054;-86
2021/04/27 02:56:24;;;;;;;7.30;2.85;;;;;;;;;;4984303;28;20125;-87
2021/04/27 02:59:10;;;;;;;10.70;2.95;;;;;;;;;;4986691;28;20025;-87
2021/04/27 03:01:56;;;;;;;5.22;2.90;;;;;;;;;;4980614;28;20053;-87
2021/04/27 03:04:41;;;;;;;7.82;4.10;;;;;;;;;;4968280;28;20046;-87
2021/04/27 03:07:27;;;;;;;9.07;2.95;;;;;;;;;;4981058;28;20025;-86
2021/04/27 03:10:12;;;;;;;6.82;2.92;;;;;;;;;;4984219;28;20041;-86
2021/04/27 03:12:57;;;;;;;8.38;2.92;;;;;;;;;;4982688;28;20036;-87
2021/04/27 03:15:42;;;;;;;4.30;2.75;;;;;;;;;;4982359;28;20037;-87
2021/04/27 03:18:28;;;;;;;5.90;2.90;;;;;;;;;;4981231;28;20022;-86
2021/04/27 03:21:13;;;;;;;6.18;3.08;;;;;;;;;;4970085;28;20362;-86
2021/04/27 03:23:58;;;;;;;8.07;3.40;;;;;;;;;;4985385;28;20026;-85
2021/04/27 03:26:43;;;;;;;10.23;3.45;;;;;;;;;;4982734;28;20042;-85
2021/04/27 03:29:28;;;;;;;4.40;2.67;;;;;;;;;;4979177;28;20038;-87
2021/04/27 03:32:14;;;;;;;7.00;2.70;;;;;;;;;;4974362;28;20669;-86
2021/04/27 03:35:00;;;;;;;11.20;3.40;;;;;;;;;;4979759;28;20517;-87
2021/04/27 03:37:45;;;;;;;8.70;3.13;;;;;;;;;;4978971;28;20543;-86
2021/04/27 03:40:30;;;;;;;5.75;3.00;;;;;;;;;;4985448;28;20026;-88
2021/04/27 03:43:15;;;;;;;7.75;2.83;;;;;;;;;;4980386;28;20033;-88
2021/04/27 03:46:01;;;;;;;8.65;2.85;;;;;;;;;;4983613;28;20397;-88
2021/04/27 03:48:46;;;;;;;7.47;3.05;;;;;;;;;;4977609;28;20053;-88
2021/04/27 03:51:31;;;;;;;8.60;2.88;;;;;;;;;;4983422;28;20030;-88
2021/04/27 03:54:16;;;;;;;6.90;2.90;;;;;;;;;;4967772;28;20590;-86
2021/04/27 03:57:04;;;;;;;7.60;2.92;;;;;;;;;;4981256;28;20056;-85
2021/04/27 03:59:49;;;;;;;8.73;2.95;;;;;;;;;;4962002;28;20026;-86
2021/04/27 04:02:35;;;;;;;8.30;2.90;;;;;;;;;;4981492;28;20121;-86
2021/04/27 04:05:20;;;;;;;7.97;3.63;;;;;;;;;;4977302;28;20100;-86
2021/04/27 04:08:05;;;;;;;7.38;3.08;;;;;;;;;;4979354;28;20021;-85
2021/04/27 04:10:50;;;;;;;8.32;3.00;;;;;;;;;;4982045;28;20034;-87
2021/04/27 04:13:36;;;;;;;4.90;2.90;;;;;;;;;;4977088;28;20511;-88
2021/04/27 04:16:21;;;;;;;7.80;2.85;;;;;;;;;;4966005;28;20033;-87
2021/04/27 04:19:06;;;;;;;7.75;2.80;;;;;;;;;;4961126;28;20034;-86
2021/04/27 04:21:51;;;;;;;7.97;3.15;;;;;;;;;;4969658;28;20018;-86
2021/04/27 04:24:37;;;;;;;7.18;3.03;;;;;;;;;;4982313;28;20034;-86
2021/04/27 04:27:22;;;;;;;9.48;3.08;;;;;;;;;;4979683;28;20381;-86
2021/04/27 04:30:13;;;;;;;6.50;3.75;;;;;;;;;;4978417;28;20030;-86
2021/04/27 04:32:58;;;;;;;5.60;3.10;;;;;;;;;;4984288;28;20122;-87
2021/04/27 04:35:43;;;;;;;6.63;3.40;;;;;;;;;;4980533;28;20034;-86
2021/04/27 04:38:29;;;;;;;6.60;3.28;;;;;;;;;;4981367;28;20156;-86
2021/04/27 04:41:14;;;;;;;11.50;3.10;;;;;;;;;;4978579;28;20014;-87
2021/04/27 04:43:59;;;;;;;4.97;2.95;;;;;;;;;;4977718;28;20081;-85
2021/04/27 04:46:45;;;;;;;6.63;3.08;;;;;;;;;;4977927;28;20421;-87
2021/04/27 04:49:30;;;;;;;8.82;3.72;;;;;;;;;;4983908;28;20362;-86
2021/04/27 04:52:15;;;;;;;9.07;3.22;;;;;;;;;;4981841;28;20440;-86
2021/04/27 04:55:00;;;;;;;6.97;3.50;;;;;;;;;;4982685;28;20033;-87
2021/04/27 04:57:46;;;;;;;7.47;3.70;;;;;;;;;;4982551;28;20385;-86
2021/04/27 05:00:32;;;;;;;9.35;2.85;;;;;;;;;;4984007;28;20405;-85
2021/04/27 05:03:17;;;;;;;8.40;3.13;;;;;;;;;;4984166;28;20397;-88
2021/04/27 05:06:03;;;;;;;10.88;3.65;;;;;;;;;;4979388;28;20046;-88
2021/04/27 05:08:53;;;;;;;5.57;3.22;;;;;;;;;;4982439;28;20490;-87
2021/04/27 05:11:41;;;;;;;8.68;3.17;;;;;;;;;;4963828;28;20032;-89
2021/04/27 05:14:27;;;;;;;7.20;3.05;;;;;;;;;;4978619;28;20500;-86
2021/04/27 05:17:14;;;;;;;7.63;3.45;;;;;;;;;;4966423;28;20097;-87
2021/04/27 05:20:00;;;;;;;8.93;3.72;;;;;;;;;;4982286;28;20052;-87
2021/04/27 05:22:45;;;;;;;6.28;4.10;;;;;;;;;;4976528;28;20049;-86
2021/04/27 05:25:31;;;;;;;11.70;3.22;;;;;;;;;;4979053;28;20023;-86
2021/04/27 05:28:16;;;;;;;10.20;3.53;;;;;;;;;;4980051;28;20066;-88
2021/04/27 05:31:02;;;;;;;8.50;3.80;;;;;;;;;;4985053;28;20053;-88
2021/04/27 05:33:47;;;;;;;9.60;3.72;;;;;;;;;;4983948;28;20488;-88
2021/04/27 05:36:32;;;;;;;8.15;3.42;;;;;;;;;;4979631;28;20096;-87
2021/04/27 05:39:18;;;;;;;7.05;3.20;;;;;;;;;;4979440;28;20027;-89
2021/04/27 05:42:35;;;;;;;10.15;3.10;;;;;;;;;;4992381;28;20014;-93
2021/04/27 05:48:43;;;;;;;8.68;3.58;;;;;;;;;;4993723;28;20029;-87
2021/04/27 05:51:29;;;;;;;7.70;3.58;;;;;;;;;;4989900;28;20029;-91
2021/04/27 05:54:15;;;;;;;10.40;4.32;;;;;;;;;;4972913;28;20157;-90
2021/04/27 05:57:00;;;;;;;11.25;5.20;;;;;;;;;;4990836;28;20484;-87
2021/04/27 05:59:45;;;;;;;13.43;8.50;;;;;;;;;;4982408;28;20022;-87
2021/04/27 06:02:31;;;;;;;9.85;4.47;;;;;;;;;;4985991;28;20022;-87
2021/04/27 06:05:17;;;;;;;9.98;3.90;;;;;;;;;;4985539;28;20081;-89
2021/04/27 06:08:07;;;;;;;7.65;3.97;;;;;;;;;;4987072;28;20064;-89
2021/04/27 06:10:52;;;;;;;10.80;3.75;;;;;;;;;;4980812;28;20022;-87
2021/04/27 06:13:38;;;;;;;6.00;3.80;;;;;;;;;;4978682;28;20038;-88
2021/04/27 06:16:24;;;;;;;7.75;3.80;;;;;;;;;;4982688;28;20084;-86
2021/04/27 06:19:09;;;;;;;10.70;4.28;;;;;;;;;;4993749;28;20045;-86
2021/04/27 06:21:55;;;;;;;9.85;5.03;;;;;;;;;;4980720;28;20117;-85
2021/04/27 06:24:40;;;;;;;11.75;3.50;;;;;;;;;;4978311;28;20054;-85
2021/04/27 06:27:28;;;;;;;11.23;5.30;;;;;;;;;;4985884;28;20479;-86
2021/04/27 06:30:15;;;;;;;10.45;4.20;;;;;;;;;;4981660;28;20030;-86
2021/04/27 06:33:01;;;;;;;10.57;3.92;;;;;;;;;;4981793;28;20030;-88
2021/04/27 06:35:46;;;;;;;12.07;4.13;;;;;;;;;;4980962;28;20117;-88
2021/04/27 06:38:31;;;;;;;9.02;3.97;;;;;;;;;;4980258;28;20433;-86
2021/04/27 06:41:17;;;;;;;13.90;4.45;;;;;;;;;;4982090;28;20549;-86
2021/04/27 06:44:03;;;;;;;9.75;4.35;;;;;;;;;;4984467;28;20042;-89
2021/04/27 06:46:48;;;;;;;9.75;4.78;;;;;;;;;;4985334;28;20050;-89
2021/04/27 06:49:34;;;;;;;7.88;4.10;;;;;;;;;;4988100;28;20034;-90
2021/04/27 06:52:20;;;;;;;10.00;4.82;;;;;;;;;;4969676;28;20497;-87
2021/04/27 06:55:05;;;;;;;10.23;4.80;;;;;;;;;;4991348;28;20049;-85
2021/04/27 06:57:51;;;;;;;6.85;4.55;;;;;;;;;;4990183;28;20058;-85
2021/04/27 07:00:37;;;;;;;9.30;3.80;;;;;;;;;;4987757;28;20523;-87
2021/04/27 07:03:22;;;;;;;8.90;4.70;;;;;;;;;;4983600;28;20033;-87
2021/04/27 07:06:07;;;;;;;8.25;4.53;;;;;;;;;;4985597;28;20072;-88
2021/04/27 07:08:52;;;;;;;9.45;4.78;;;;;;;;;;4987300;28;20018;-86
2021/04/27 07:11:38;;;;;;;31.42;18.45;;;;;;;;;;4985152;28;20024;-87
2021/04/27 07:14:23;;;;;;;16.17;10.43;;;;;;;;;;4984417;28;20019;-87
2021/04/27 07:17:08;;;;;;;12.30;5.50;;;;;;;;;;4982303;28;20019;-86
2021/04/27 07:19:55;;;;;;;10.23;4.45;;;;;;;;;;4982984;28;20395;-86
2021/04/27 07:22:40;;;;;;;8.43;4.65;;;;;;;;;;4985623;28;20108;-87
2021/04/27 07:25:28;;;;;;;9.30;5.13;;;;;;;;;;4987197;28;20110;-86
2021/04/27 07:28:13;;;;;;;8.23;4.80;;;;;;;;;;4983374;28;20026;-85
2021/04/27 07:30:59;;;;;;;8.70;4.43;;;;;;;;;;4985085;28;20532;-85
2021/04/27 07:33:44;;;;;;;12.30;4.88;;;;;;;;;;4983494;28;20117;-86
2021/04/27 07:36:29;;;;;;;14.68;6.05;;;;;;;;;;4986324;28;20030;-86
2021/04/27 07:39:20;;;;;;;12.18;5.18;;;;;;;;;;4971863;28;20033;-91
2021/04/27 07:42:05;;;;;;;9.43;4.40;;;;;;;;;;4986476;28;20029;-89
2021/04/27 07:44:51;;;;;;;7.13;4.72;;;;;;;;;;4987708;28;20106;-88
2021/04/27 07:47:42;;;;;;;9.18;5.07;;;;;;;;;;4983513;28;20015;-91
2021/04/27 07:50:30;;;;;;;10.88;6.05;;;;;;;;;;4971862;28;20685;-86
2021/04/27 07:53:15;;;;;;;10.98;5.35;;;;;;;;;;4978422;28;20022;-86
2021/04/27 07:56:01;;;;;;;8.73;5.00;;;;;;;;;;4979663;28;20034;-86
2021/04/27 07:58:51;;;;;;;7.78;4.97;;;;;;;;;;4975933;28;20036;-86
2021/04/27 08:04:42;;;;;;;10.23;4.90;;;;;;;;;;4976773;28;20056;-85
2021/04/27 08:07:27;;;;;;;11.45;5.32;;;;;;;;;;4979093;28;20061;-83
2021/04/27 08:10:13;;;;;;;10.18;5.13;;;;;;;;;;4978421;28;20397;-84
2021/04/27 08:12:59;;;;;;;7.07;5.15;;;;;;;;;;4979557;28;20088;-84
2021/04/27 08:15:45;;;;;;;9.27;4.78;;;;;;;;;;4983107;28;20477;-84
2021/04/27 08:18:31;;;;;;;13.68;5.72;;;;;;;;;;4977974;28;20026;-84
2021/04/27 08:21:16;;;;;;;13.00;5.80;;;;;;;;;;4979835;28;20026;-84
2021/04/27 08:24:02;;;;;;;13.57;6.40;;;;;;;;;;4981861;28;20022;-84
2021/04/27 08:26:47;;;;;;;16.17;5.32;;;;;;;;;;4982510;28;20069;-85
2021/04/27 08:29:32;;;;;;;9.32;5.13;;;;;;;;;;4975220;28;20088;-85
2021/04/27 08:32:18;;;;;;;8.65;5.00;;;;;;;;;;4981869;28;20053;-85
2021/04/27 08:35:04;;;;;;;11.02;5.07;;;;;;;;;;4982151;28;20534;-86
2021/04/27 08:37:49;;;;;;;12.82;5.70;;;;;;;;;;4984558;28;20019;-86
2021/04/27 08:40:34;;;;;;;9.57;5.63;;;;;;;;;;4981655;28;20030;-86
2021/04/27 08:43:20;;;;;;;11.32;5.30;;;;;;;;;;4981125;28;20030;-86
2021/04/27 08:46:08;;;;;;;12.70;6.05;;;;;;;;;;4981886;28;20120;-84
2021/04/27 08:48:57;;;;;;;9.93;5.63;;;;;;;;;;4985458;28;20081;-85
2021/04/27 08:51:53;;;;;;;10.83;5.83;;;;;;;;;;4979559;28;20054;-88
2021/04/27 08:54:40;;;;;;;11.45;6.07;;;;;;;;;;4975480;28;20026;-87
2021/04/27 08:57:26;;;;;;;12.80;5.47;;;;;;;;;;4980285;28;20113;-87
2021/04/27 09:00:13;;;;;;;13.13;6.43;;;;;;;;;;4983294;28;20026;-85
2021/04/27 09:02:59;;;;;;;25.02;18.05;;;;;;;;;;4983242;28;20228;-85
2021/04/27 09:05:45;;;;;;;13.23;9.10;;;;;;;;;;4980582;28;20047;-86
2021/04/27 09:08:41;;;;;;;8.93;5.88;;;;;;;;;;4977029;28;20060;-83
2021/04/27 09:11:43;;;;;;;9.32;5.93;;;;;;;;;;4971194;28;20034;-84
2021/04/27 09:14:28;;;;;;;9.25;5.70;;;;;;;;;;4971552;28;20025;-85
2021/04/27 09:17:14;;;;;;;15.18;5.72;;;;;;;;;;4976890;28;20481;-86
2021/04/27 09:19:59;;;;;;;11.57;6.32;;;;;;;;;;4983459;28;20030;-84
2021/04/27 09:22:45;;;;;;;8.35;5.50;;;;;;;;;;4975189;28;20080;-84
2021/04/27 09:25:30;;;;;;;11.02;6.32;;;;;;;;;;4977929;28;20102;-84
2021/04/27 09:28:31;;;;;;;13.82;6.20;;;;;;;;;;4984920;28;20142;-85
2021/04/27 09:31:27;;;;;;;10.32;6.00;;;;;;;;;;4982657;28;20473;-84
2021/04/27 09:34:23;;;;;;;16.42;7.00;;;;;;;;;;4967867;28;20023;-84
2021/04/27 09:37:10;;;;;;;12.80;6.35;;;;;;;;;;4982151;28;20034;-85
2021/04/27 09:39:55;;;;;;;13.05;7.03;;;;;;;;;;4983418;28;20025;-84
2021/04/27 09:42:41;;;;;;;9.55;6.25;;;;;;;;;;4979648;28;20026;-87
2021/04/27 09:45:26;;;;;;;14.27;9.90;;;;;;;;;;4980820;28;20504;-84
2021/04/27 09:48:11;;;;;;;9.90;7.07;;;;;;;;;;4981976;28;20037;-85
2021/04/27 09:51:19;;;;;;;13.93;6.88;;;;;;;;;;4985695;28;20097;-85
2021/04/27 09:54:05;;;;;;;11.85;6.30;;;;;;;;;;4982525;28;20037;-87
2021/04/27 09:56:54;;;;;;;10.23;6.55;;;;;;;;;;4982281;28;20092;-88
2021/04/27 09:59:42;;;;;;;12.00;6.63;;;;;;;;;;4986277;28;20432;-86
2021/04/27 10:02:27;;;;;;;11.70;7.18;;;;;;;;;;4985017;28;20820;-87
2021/04/27 10:05:13;;;;;;;8.70;6.00;;;;;;;;;;4984890;28;20042;-87
2021/04/27 10:07:59;;;;;;;11.55;6.90;;;;;;;;;;4981507;28;20066;-86
2021/04/27 10:10:44;;;;;;;11.80;6.47;;;;;;;;;;4987353;28;20402;-86
2021/04/27 10:13:29;;;;;;;13.73;7.15;;;;;;;;;;4987336;28;20033;-87
2021/04/27 10:16:18;;;;;;;11.65;7.78;;;;;;;;;;4986407;28;20361;-86
2021/04/27 10:19:04;;;;;;;10.85;7.55;;;;;;;;;;4982001;28;20030;-88
2021/04/27 10:21:51;;;;;;;13.50;7.90;;;;;;;;;;4985270;28;20119;-87
2021/04/27 10:24:37;;;;;;;13.00;7.72;;;;;;;;;;4970446;28;20026;-87
2021/04/27 10:27:32;;;;;;;13.63;7.57;;;;;;;;;;4986531;28;20346;-88
2021/04/27 10:30:17;;;;;;;16.52;8.80;;;;;;;;;;4980725;28;20089;-89
2021/04/27 10:33:02;;;;;;;13.27;7.15;;;;;;;;;;4983277;28;20089;-86
2021/04/27 10:36:09;;;;;;;13.60;8.05;;;;;;;;;;4970836;28;20030;-89
2021/04/27 10:38:59;;;;;;;19.05;14.95;;;;;;;;;;4971138;28;20026;-85
2021/04/27 10:41:46;;;;;;;12.75;7.25;;;;;;;;;;4986242;28;20053;-79
2021/04/27 10:44:48;;;;;;;15.95;7.03;;;;;;;;;;4986451;28;20389;-82
2021/04/27 10:47:44;;;;;;;12.93;8.50;;;;;;;;;;4984920;28;20026;-83
2021/04/27 10:50:36;;;;;;;14.45;8.13;;;;;;;;;;4974895;28;20042;-82
2021/04/27 10:53:36;;;;;;;12.73;7.15;;;;;;;;;;4978160;28;20026;-85
2021/04/27 10:56:21;;;;;;;;;;;;;;;;;;4980711;28;20045;-83
2021/04/27 10:59:26;;;;;;;12.55;7.57;;;;;;;;;;4969298;28;19930;-82
2021/04/27 11:02:20;;;;;;;13.32;7.90;;;;;;;;;;4982115;28;20037;-80
2021/04/27 11:05:12;;;;;;;17.00;8.02;;;;;;;;;;4981466;28;20499;-80
2021/04/27 11:08:11;;;;;;;9.65;7.18;;;;;;;;;;4990178;28;20058;-79
2021/04/27 11:10:56;;;;;;;11.50;7.63;;;;;;;;;;4990890;28;20198;-82
2021/04/27 11:13:41;;;;;;;11.70;8.57;;;;;;;;;;4983903;28;20027;-82
2021/04/27 11:16:30;;;;;;;15.95;8.55;;;;;;;;;;4976651;28;20015;-82
2021/04/27 11:19:19;;;;;;;9.90;7.03;;;;;;;;;;4983827;28;20018;-82
2021/04/27 11:22:15;;;;;;;12.23;7.90;;;;;;;;;;4982396;28;20034;-84
2021/04/27 11:25:01;;;;;;;12.63;7.68;;;;;;;;;;4983912;28;20018;-79
2021/04/27 11:27:47;;;;;;;14.52;8.60;;;;;;;;;;4979337;28;20797;-86
2021/04/27 11:30:33;;;;;;;13.48;7.20;;;;;;;;;;4985913;28;20022;-88
2021/04/27 11:33:18;;;;;;;12.02;7.25;;;;;;;;;;4981389;28;20026;-87
2021/04/27 11:36:03;;;;;;;12.07;7.45;;;;;;;;;;4982771;28;20042;-88
2021/04/27 11:38:49;;;;;;;13.20;8.48;;;;;;;;;;4979005;28;20030;-88
2021/04/27 11:41:48;;;;;;;14.77;8.05;;;;;;;;;;4980072;28;20492;-88
2021/04/27 11:44:34;;;;;;;13.73;7.60;;;;;;;;;;4979949;28;20536;-89
2021/04/27 11:47:20;;;;;;;11.65;8.45;;;;;;;;;;4975920;28;20034;-86
2021/04/27 11:50:06;;;;;;;11.52;7.32;;;;;;;;;;4977820;28;20044;-88
2021/04/27 11:52:53;;;;;;;13.32;8.48;;;;;;;;;;4982173;28;20077;-88
2021/04/27 11:55:46;;;;;;;11.82;7.97;;;;;;;;;;4984018;28;20030;-87
2021/04/27 11:58:40;;;;;;;12.55;8.20;;;;;;;;;;4978633;28;20060;-87
2021/04/27 12:01:26;;;;;;;14.02;8.23;;;;;;;;;;4986129;28;20018;-85
2021/04/27 12:04:11;;;;;;;12.38;7.90;;;;;;;;;;4976024;28;20608;-85
2021/04/27 12:07:00;;;;;;;15.27;7.40;;;;;;;;;;4984945;28;20030;-86
2021/04/27 12:09:46;;;;;;;13.30;7.85;;;;;;;;;;4984453;28;20033;-86
2021/04/27 12:12:31;;;;;;;14.63;8.82;;;;;;;;;;4982318;28;20038;-86
2021/04/27 12:15:20;;;;;;;10.93;7.70;;;;;;;;;;4983245;28;20030;-86
2021/04/27 12:18:07;;;;;;;11.70;7.40;;;;;;;;;;4977674;28;20026;-87
2021/04/27 12:20:52;;;;;;;9.95;7.03;;;;;;;;;;4975669;28;20105;-86
2021/04/27 12:23:38;;;;;;;11.50;7.85;;;;;;;;;;4979282;28;20065;-85
2021/04/27 12:26:23;;;;;;;10.38;7.35;;;;;;;;;;4983692;28;20040;-86
2021/04/27 12:29:12;;;;;;;13.90;8.43;;;;;;;;;;4981783;28;20028;-87
2021/04/27 12:32:11;;;;;;;12.50;7.60;;;;;;;;;;4981453;28;20026;-86
2021/04/27 12:35:15;;;;;;;10.90;6.97;;;;;;;;;;4976107;28;20022;-87
2021/04/27 12:38:05;;;;;;;13.70;7.85;;;;;;;;;;4983634;28;20023;-86
2021/04/27 12:40:50;;;;;;;;;;;;;;;;;;4985094;28;20057;-88
2021/04/27 12:43:38;;;;;;;13.10;8.45;;;;;;;;;;4982160;28;20331;-86
2021/04/27 12:46:23;;;;;;;10.55;7.70;;;;;;;;;;4972969;28;20029;-89
2021/04/27 12:49:08;;;;;;;11.93;7.30;;;;;;;;;;4978937;28;20023;-86
2021/04/27 12:51:54;;;;;;;12.32;7.43;;;;;;;;;;4988721;28;20022;-84
2021/04/27 12:54:41;;;;;;;11.75;7.55;;;;;;;;;;4986365;28;20019;-83
2021/04/27 12:57:26;;;;;;;12.10;7.05;;;;;;;;;;4981777;28;20030;-85
2021/04/27 13:00:14;;;;;;;15.18;8.30;;;;;;;;;;4983060;28;20029;-83
2021/04/27 13:03:14;;;;;;;11.55;7.18;;;;;;;;;;4983328;28;20033;-84
2021/04/27 13:06:18;;;;;;;10.13;7.15;;;;;;;;;;4983814;28;20511;-84
2021/04/27 13:09:04;;;;;;;12.95;7.15;;;;;;;;;;4989290;28;20338;-84
2021/04/27 13:12:00;;;;;;;12.80;7.30;;;;;;;;;;4985100;28;20040;-85
2021/04/27 13:14:53;;;;;;;11.88;7.70;;;;;;;;;;4987823;28;20022;-86
2021/04/27 13:17:44;;;;;;;12.95;7.47;;;;;;;;;;4984996;28;20566;-86
2021/04/27 13:20:42;;;;;;;10.25;6.93;;;;;;;;;;4968232;28;20033;-87
2021/04/27 13:23:29;;;;;;;15.70;8.65;;;;;;;;;;4987759;28;20026;-86
2021/04/27 13:26:20;;;;;;;12.35;8.10;;;;;;;;;;4981968;28;20030;-84
2021/04/27 13:29:06;;;;;;;11.18;7.15;;;;;;;;;;4988103;28;20049;-87
2021/04/27 13:32:09;;;;;;;10.50;7.30;;;;;;;;;;4964973;28;20037;-85
2021/04/27 13:34:54;;;;;;;11.27;7.03;;;;;;;;;;4987046;28;20057;-85
2021/04/27 13:37:40;;;;;;;11.63;6.78;;;;;;;;;;4984640;28;20034;-85
2021/04/27 13:40:25;;;;;;;12.32;7.55;;;;;;;;;;4972351;28;20030;-86
2021/04/27 13:43:15;;;;;;;12.45;7.10;;;;;;;;;;4982273;28;20019;-86
2021/04/27 13:46:02;;;;;;;11.00;7.47;;;;;;;;;;4979709;28;20027;-87
2021/04/27 13:48:47;;;;;;;15.75;10.07;;;;;;;;;;4984732;28;20069;-86
2021/04/27 13:51:33;;;;;;;17.13;9.32;;;;;;;;;;4980847;28;20022;-87
2021/04/27 13:54:18;;;;;;;14.40;8.00;;;;;;;;;;4983375;28;20092;-86
2021/04/27 13:57:03;;;;;;;11.00;6.57;;;;;;;;;;4979324;28;20477;-86
2021/04/27 13:59:48;;;;;;;10.48;7.03;;;;;;;;;;4986898;28;20069;-84
2021/04/27 14:02:34;;;;;;;11.25;7.85;;;;;;;;;;4982693;28;20030;-87
2021/04/27 14:05:20;;;;;;;11.68;7.25;;;;;;;;;;4968728;28;21681;-85
2021/04/27 14:08:06;;;;;;;10.40;7.25;;;;;;;;;;4981051;28;20029;-87
2021/04/27 14:10:52;;;;;;;15.15;7.97;;;;;;;;;;4984820;28;20033;-85
2021/04/27 14:13:38;;;;;;;11.68;8.32;;;;;;;;;;4980221;28;20790;-85
2021/04/27 14:16:23;;;;;;;14.23;9.13;;;;;;;;;;4982190;28;20499;-85
2021/04/27 14:19:09;;;;;;;13.43;7.20;;;;;;;;;;4980956;28;20179;-86
2021/04/27 14:22:00;;;;;;;12.38;7.45;;;;;;;;;;4988177;28;20022;-85
2021/04/27 14:24:46;;;;;;;11.60;7.13;;;;;;;;;;4986186;28;20073;-84
2021/04/27 14:27:31;;;;;;;12.55;7.28;;;;;;;;;;4984037;28;20026;-84
2021/04/27 14:30:17;;;;;;;11.27;7.38;;;;;;;;;;4985635;28;20037;-84
2021/04/27 14:33:03;;;;;;;12.00;6.85;;;;;;;;;;4986149;28;20468;-86
2021/04/27 14:35:50;;;;;;;10.27;6.88;;;;;;;;;;4993730;28;20470;-85
2021/04/27 14:38:36;;;;;;;12.75;7.05;;;;;;;;;;4991845;28;20026;-84
2021/04/27 14:41:21;;;;;;;13.65;7.47;;;;;;;;;;4986299;28;20033;-84
2021/04/27 14:44:06;;;;;;;11.95;7.05;;;;;;;;;;4980854;28;20111;-83
2021/04/27 14:46:52;;;;;;;21.85;14.70;;;;;;;;;;4984574;28;20093;-81
2021/04/27 14:49:37;;;;;;;14.35;9.02;;;;;;;;;;4983786;28;20107;-81
2021/04/27 14:52:23;;;;;;;15.95;8.02;;;;;;;;;;4988879;28;20022;-83
2021/04/27 14:55:09;;;;;;;12.45;7.38;;;;;;;;;;4979727;28;20274;-81
2021/04/27 14:57:54;;;;;;;14.75;6.70;;;;;;;;;;4982435;28;20026;-81
2021/04/27 15:00:39;;;;;;;11.55;7.57;;;;;;;;;;4983804;28;20105;-81
2021/04/27 15:03:24;;;;;;;11.93;7.50;;;;;;;;;;4984165;28;20117;-82
2021/04/27 15:06:10;;;;;;;14.27;7.07;;;;;;;;;;4964420;28;20042;-83
2021/04/27 15:08:55;;;;;;;10.13;6.60;;;;;;;;;;4983069;28;20030;-83
2021/04/27 15:11:40;;;;;;;13.35;7.05;;;;;;;;;;4986156;28;20058;-83
2021/04/27 15:14:25;;;;;;;9.73;6.70;;;;;;;;;;4981325;28;20480;-84
2021/04/27 15:17:11;;;;;;;12.57;6.30;;;;;;;;;;4980409;28;20034;-83
2021/04/27 15:19:57;;;;;;;10.85;6.55;;;;;;;;;;4983113;28;20496;-83
2021/04/27 15:22:42;;;;;;;11.27;6.75;;;;;;;;;;4985274;28;20029;-84
2021/04/27 15:25:28;;;;;;;11.05;6.65;;;;;;;;;;4981135;28;20026;-84
2021/04/27 15:28:13;;;;;;;9.85;6.63;;;;;;;;;;4976624;28;20681;-83
2021/04/27 15:30:58;;;;;;;10.75;6.50;;;;;;;;;;4980175;28;20444;-83
2021/04/27 15:33:44;;;;;;;11.85;5.95;;;;;;;;;;4984807;28;20109;-84
2021/04/27 15:36:29;;;;;;;12.82;6.07;;;;;;;;;;4978547;28;20026;-83
2021/04/27 15:39:14;;;;;;;10.15;6.05;;;;;;;;;;4979247;28;20022;-84
2021/04/27 15:42:00;;;;;;;12.18;5.88;;;;;;;;;;4981069;28;20034;-84
2021/04/27 15:44:46;;;;;;;10.13;6.70;;;;;;;;;;4983098;28;20038;-84
2021/04/27 15:47:31;;;;;;;9.18;6.43;;;;;;;;;;4985193;28;20034;-85
2021/04/27 15:50:18;;;;;;;12.65;7.80;;;;;;;;;;4979619;28;20030;-85
2021/04/27 15:53:05;;;;;;;10.52;6.10;;;;;;;;;;4965178;28;20072;-83
2021/04/27 15:55:50;;;;;;;9.05;6.18;;;;;;;;;;4982958;28;20073;-83
2021/04/27 15:58:35;;;;;;;9.95;6.70;;;;;;;;;;4984016;28;20117;-83
2021/04/27 16:01:21;;;;;;;9.70;6.03;;;;;;;;;;4975507;28;20026;-83
2021/04/27 16:04:06;;;;;;;14.43;10.50;;;;;;;;;;4980958;28;20051;-84
2021/04/27 16:06:51;;;;;;;10.05;6.65;;;;;;;;;;4977679;28;20430;-84
2021/04/27 16:09:37;;;;;;;8.13;5.65;;;;;;;;;;4984179;28;20022;-86
2021/04/27 16:12:22;;;;;;;10.50;6.15;;;;;;;;;;4973544;28;20049;-85
2021/04/27 16:15:08;;;;;;;12.07;6.82;;;;;;;;;;4983474;28;20041;-83
2021/04/27 16:17:53;;;;;;;11.07;6.00;;;;;;;;;;4975561;28;20033;-81
2021/04/27 16:20:39;;;;;;;9.88;6.13;;;;;;;;;;4979216;28;20033;-82
2021/04/27 16:23:24;;;;;;;9.63;6.38;;;;;;;;;;4974990;28;20018;-82
2021/04/27 16:26:09;;;;;;;10.70;5.97;;;;;;;;;;4986877;28;20113;-82
2021/04/27 16:28:55;;;;;;;9.55;6.57;;;;;;;;;;4982938;28;20197;-82
2021/04/27 16:31:41;;;;;;;9.10;5.63;;;;;;;;;;4990614;28;20665;-81
2021/04/27 16:34:26;;;;;;;11.70;6.43;;;;;;;;;;4980756;28;20034;-82
2021/04/27 16:37:11;;;;;;;11.43;6.20;;;;;;;;;;4985411;28;20034;-84
2021/04/27 16:39:57;;;;;;;10.52;6.00;;;;;;;;;;4989845;28;20037;-82